createdAt,value
2023-03-27T00:00:22.388Z,73.10
2023-03-27T00:02:49.973Z,74.90
2023-03-27T00:05:16.876Z,76.90
2023-03-27T00:07:44.525Z,76.90
2023-03-27T00:10:12.197Z,76.90
2023-03-27T00:12:39.241Z,76.90
2023-03-27T00:15:06.362Z,77.20
2023-03-27T00:17:33.793Z,77.90
2023-03-27T00:20:00.346Z,78.10
2023-03-27T00:22:26.906Z,76.90
2023-03-27T00:24:53.669Z,76.80
2023-03-27T00:27:20.243Z,76.80
2023-03-27T00:29:47.155Z,76.80
2023-03-27T00:32:13.760Z,76.80
2023-03-27T00:34:40.361Z,76.80
2023-03-27T00:37:07.299Z,75.00
2023-03-27T00:39:33.985Z,75.70
2023-03-27T00:42:00.520Z,74.80
2023-03-27T00:44:38.654Z,76.70
2023-03-27T00:47:07.698Z,74.50
2023-03-27T00:49:35.860Z,76.60
2023-03-27T00:52:03.713Z,75.80
2023-03-27T00:54:31.741Z,74.90
2023-03-27T00:57:03.431Z,76.70
2023-03-27T00:59:31.786Z,76.70
2023-03-27T01:01:58.932Z,76.70
2023-03-27T01:04:25.842Z,77.60
2023-03-27T01:06:53.599Z,79.10
2023-03-27T01:09:21.371Z,80.10
2023-03-27T01:12:05.259Z,82.80
2023-03-27T01:14:50.398Z,83.60
2023-03-27T01:17:20.321Z,83.00
2023-03-27T01:19:49.724Z,84.90
2023-03-27T01:22:23.854Z,84.90
2023-03-27T01:25:10.639Z,83.70
2023-03-27T01:27:43.261Z,83.80
2023-03-27T01:30:20.165Z,84.70
2023-03-27T01:32:53.019Z,82.90
2023-03-27T01:35:28.729Z,82.20
2023-03-27T01:38:14.043Z,81.80
2023-03-27T01:40:59.253Z,82.20
2023-03-27T01:43:37.625Z,82.00
2023-03-27T01:46:25.884Z,84.50
2023-03-27T01:49:18.824Z,84.50
2023-03-27T01:51:48.818Z,85.30
2023-03-27T01:54:18.047Z,86.30
2023-03-27T01:56:53.396Z,88.40
2023-03-27T01:59:22.662Z,85.50
2023-03-27T02:01:52.416Z,86.60
2023-03-27T02:04:21.637Z,87.70
2023-03-27T02:06:51.849Z,89.50
2023-03-27T02:09:50.647Z,90.10
2023-03-27T02:12:20.122Z,90.90
2023-03-27T02:14:49.907Z,88.20
2023-03-27T02:17:18.441Z,88.90
2023-03-27T02:19:54.370Z,88.70
2023-03-27T02:22:20.937Z,88.60
2023-03-27T02:25:20.992Z,88.10
2023-03-27T02:27:48.134Z,86.90
2023-03-27T02:30:21.127Z,84.00
2023-03-27T02:32:50.592Z,84.00
2023-03-27T02:35:23.022Z,83.80
2023-03-27T02:38:09.059Z,82.80
2023-03-27T02:40:46.747Z,84.00
2023-03-27T02:43:19.822Z,83.80
2023-03-27T02:45:52.289Z,82.90
2023-03-27T02:48:24.983Z,79.70
2023-03-27T02:51:00.455Z,79.20
2023-03-27T02:53:28.435Z,78.50
2023-03-27T02:55:57.272Z,78.60
2023-03-27T02:58:34.379Z,78.80
2023-03-27T03:01:03.526Z,79.60
2023-03-27T03:03:33.582Z,82.50
2023-03-27T03:06:00.307Z,81.80
2023-03-27T03:08:30.336Z,81.10
2023-03-27T03:11:01.958Z,82.20
2023-03-27T03:13:28.519Z,82.60
2023-03-27T03:15:55.052Z,82.00
2023-03-27T03:18:21.927Z,81.80
2023-03-27T03:20:49.057Z,81.50
2023-03-27T03:23:16.000Z,83.40
2023-03-27T03:25:44.665Z,83.40
2023-03-27T03:28:11.330Z,83.30
2023-03-27T03:30:41.954Z,83.90
2023-03-27T03:33:09.606Z,85.40
2023-03-27T03:35:36.402Z,87.30
2023-03-27T03:38:03.776Z,89.20
2023-03-27T03:40:30.329Z,88.80
2023-03-27T03:42:56.934Z,87.30
2023-03-27T03:45:23.514Z,88.20
2023-03-27T03:47:50.306Z,88.50
2023-03-27T03:50:17.021Z,86.70
2023-03-27T03:52:44.798Z,86.10
2023-03-27T03:55:11.997Z,87.90
2023-03-27T03:57:38.804Z,85.90
2023-03-27T04:00:08.694Z,86.20
2023-03-27T04:02:37.032Z,85.60
2023-03-27T04:05:08.820Z,83.40
2023-03-27T04:07:36.916Z,83.40
2023-03-27T04:10:04.045Z,85.70
2023-03-27T04:12:30.624Z,84.20
2023-03-27T04:14:57.490Z,86.30
2023-03-27T04:17:26.299Z,86.30
2023-03-27T04:19:54.206Z,87.10
2023-03-27T04:22:22.828Z,85.90
2023-03-27T04:24:50.565Z,84.90
2023-03-27T04:27:17.731Z,85.70
2023-03-27T04:29:47.272Z,85.80
2023-03-27T04:32:19.035Z,86.00
2023-03-27T04:34:46.501Z,87.10
2023-03-27T04:37:13.226Z,87.90
2023-03-27T04:39:42.881Z,87.30
2023-03-27T04:42:10.368Z,87.00
2023-03-27T04:44:37.680Z,86.50
2023-03-27T04:49:40.345Z,83.00
2023-03-27T04:52:07.938Z,83.40
2023-03-27T04:54:34.964Z,85.00
2023-03-27T04:57:02.111Z,82.90
2023-03-27T04:59:32.679Z,85.50
2023-03-27T05:01:59.992Z,85.60
2023-03-27T05:04:26.649Z,85.00
2023-03-27T05:06:53.791Z,83.40
2023-03-27T05:09:20.484Z,83.70
2023-03-27T05:11:49.863Z,82.80
2023-03-27T05:14:17.153Z,82.80
2023-03-27T05:16:43.789Z,84.00
2023-03-27T05:19:11.303Z,83.80
2023-03-27T05:21:38.265Z,82.80
2023-03-27T05:24:05.067Z,80.00
2023-03-27T05:26:32.773Z,78.40
2023-03-27T05:28:59.570Z,81.10
2023-03-27T05:31:27.219Z,82.70
2023-03-27T05:33:54.291Z,80.10
2023-03-27T05:36:22.295Z,77.80
2023-03-27T05:38:48.862Z,75.90
2023-03-27T05:41:19.336Z,76.00
2023-03-27T05:43:45.929Z,76.10
2023-03-27T05:46:13.495Z,76.90
2023-03-27T05:48:48.138Z,79.10
2023-03-27T05:51:14.697Z,80.00
2023-03-27T05:53:41.444Z,78.60
2023-03-27T05:56:08.656Z,80.30
2023-03-27T05:58:35.982Z,78.70
2023-03-27T06:01:03.364Z,78.30
2023-03-27T06:03:36.675Z,78.50
2023-03-27T06:06:06.884Z,79.00
2023-03-27T06:08:34.037Z,79.40
2023-03-27T06:11:00.746Z,80.50
2023-03-27T06:13:27.360Z,82.50
2023-03-27T06:15:54.400Z,82.50
2023-03-27T06:18:21.564Z,82.60
2023-03-27T06:20:48.271Z,82.60
2023-03-27T06:23:15.020Z,81.00
2023-03-27T06:25:41.636Z,79.30
2023-03-27T06:28:09.619Z,79.90
2023-03-27T06:30:39.825Z,78.60
2023-03-27T06:33:07.738Z,77.60
2023-03-27T06:35:35.082Z,74.70
2023-03-27T06:38:02.806Z,68.70
2023-03-27T06:40:31.406Z,64.60
2023-03-27T06:42:59.349Z,62.80
2023-03-27T06:45:30.288Z,62.90
2023-03-27T06:48:17.027Z,62.10
2023-03-27T06:50:46.619Z,59.90
2023-03-27T06:53:26.513Z,57.40
2023-03-27T06:55:53.623Z,57.50
2023-03-27T06:58:20.464Z,55.90
2023-03-27T07:00:49.645Z,56.70
2023-03-27T07:03:17.713Z,54.40
2023-03-27T07:05:44.414Z,49.20
2023-03-27T07:08:22.466Z,47.00
2023-03-27T07:10:59.834Z,46.20
2023-03-27T07:13:34.506Z,46.90
2023-03-27T07:16:01.060Z,47.00
2023-03-27T07:18:27.674Z,48.90
2023-03-27T07:20:54.370Z,52.30
2023-03-27T07:23:21.298Z,50.00
2023-03-27T07:25:49.968Z,44.80
2023-03-27T07:28:18.288Z,38.80
2023-03-27T07:30:45.195Z,36.20
2023-03-27T07:33:12.635Z,39.10
2023-03-27T07:35:46.149Z,39.70
2023-03-27T07:38:12.873Z,44.00
2023-03-27T07:40:40.792Z,44.60
2023-03-27T07:43:07.809Z,46.70
2023-03-27T07:45:35.204Z,47.40
2023-03-27T07:48:06.658Z,43.60
2023-03-27T07:50:33.420Z,39.60
2023-03-27T07:52:59.980Z,35.80
2023-03-27T07:55:29.614Z,37.20
2023-03-27T07:58:01.451Z,36.10
2023-03-27T08:00:29.643Z,30.50
2023-03-27T08:03:04.147Z,26.70
2023-03-27T08:05:30.790Z,20.00
2023-03-27T08:07:57.425Z,9.60
2023-03-27T08:10:24.088Z,1.00
2023-03-27T08:12:50.917Z,1.00
2023-03-27T08:15:18.582Z,1.00
2023-03-27T08:17:45.208Z,1.00
2023-03-27T08:20:15.320Z,1.00
2023-03-27T08:22:42.010Z,1.00
2023-03-27T08:25:10.267Z,1.00
2023-03-27T08:27:37.117Z,1.00
2023-03-27T08:30:04.614Z,1.00
2023-03-27T08:32:31.808Z,1.00
2023-03-27T08:34:58.455Z,1.00
2023-03-27T08:37:25.321Z,1.00
2023-03-27T08:39:52.059Z,1.00
2023-03-27T08:42:21.793Z,1.00
2023-03-27T08:44:52.993Z,1.00
2023-03-27T08:47:24.300Z,1.00
2023-03-27T08:49:54.222Z,1.00
2023-03-27T08:52:25.110Z,1.00
2023-03-27T08:54:58.163Z,1.00
2023-03-27T08:57:28.157Z,1.00
2023-03-27T08:59:59.716Z,1.00
2023-03-27T09:02:29.672Z,1.00
2023-03-27T09:04:56.285Z,1.00
2023-03-27T09:07:22.860Z,1.00
2023-03-27T09:10:08.351Z,1.00
2023-03-27T09:12:39.842Z,1.00
2023-03-27T09:15:17.270Z,1.00
2023-03-27T09:17:46.462Z,1.00
2023-03-27T09:20:23.146Z,1.00
2023-03-27T09:23:05.506Z,1.00
2023-03-27T09:25:35.496Z,1.00
2023-03-27T09:28:03.403Z,1.00
2023-03-27T09:30:33.747Z,1.00
2023-03-27T09:33:05.613Z,1.00
2023-03-27T09:35:35.170Z,1.00
2023-03-27T09:38:03.960Z,1.00
2023-03-27T09:40:43.931Z,1.00
2023-03-27T09:43:16.271Z,1.00
2023-03-27T09:45:44.086Z,1.00
2023-03-27T09:48:50.282Z,1.00
2023-03-27T09:51:36.372Z,1.00
2023-03-27T09:54:03.636Z,1.00
2023-03-27T09:56:31.227Z,1.00
2023-03-27T09:58:59.032Z,1.00
2023-03-27T10:01:30.319Z,1.00
2023-03-27T10:03:58.149Z,1.00
2023-03-27T10:06:25.335Z,1.00
2023-03-27T10:08:52.107Z,1.00
2023-03-27T10:11:20.819Z,1.00
2023-03-27T10:13:48.168Z,1.00
2023-03-27T10:16:17.666Z,1.00
2023-03-27T10:18:46.088Z,1.00
2023-03-27T10:21:35.984Z,1.00
2023-03-27T10:24:04.395Z,1.00
2023-03-27T10:26:31.703Z,1.00
2023-03-27T10:29:01.468Z,1.00
2023-03-27T10:31:29.870Z,1.00
2023-03-27T10:33:57.869Z,1.00
2023-03-27T10:36:24.963Z,1.00
2023-03-27T10:38:54.883Z,1.00
2023-03-27T10:41:28.344Z,1.00
2023-03-27T10:43:56.892Z,1.00
2023-03-27T10:46:25.572Z,1.00
2023-03-27T10:48:52.139Z,1.00
2023-03-27T10:51:28.355Z,1.00
2023-03-27T10:54:09.769Z,1.00
2023-03-27T10:56:48.669Z,1.00
2023-03-27T10:59:34.557Z,1.00
2023-03-27T11:02:13.088Z,1.00
2023-03-27T11:04:49.083Z,1.00
2023-03-27T11:07:41.995Z,1.00
2023-03-27T11:10:19.460Z,1.00
2023-03-27T11:12:56.045Z,1.00
2023-03-27T11:15:26.038Z,1.00
2023-03-27T11:17:56.176Z,1.00
2023-03-27T11:20:32.054Z,1.00
2023-03-27T11:23:09.177Z,1.00
2023-03-27T11:25:45.249Z,1.00
2023-03-27T11:28:14.680Z,1.00
2023-03-27T11:31:11.556Z,1.00
2023-03-27T11:33:48.763Z,1.00
2023-03-27T11:36:21.430Z,1.00
2023-03-27T11:38:56.323Z,1.00
2023-03-27T11:41:23.008Z,1.00
2023-03-27T11:43:49.590Z,1.00
2023-03-27T11:46:22.181Z,1.00
2023-03-27T11:49:14.969Z,1.00
2023-03-27T11:51:56.706Z,1.00
2023-03-27T11:54:29.475Z,1.00
2023-03-27T11:56:57.966Z,1.00
2023-03-27T11:59:30.728Z,1.00
2023-03-27T12:02:00.606Z,1.00
2023-03-27T12:04:37.660Z,1.00
2023-03-27T12:07:12.290Z,1.00
2023-03-27T12:09:39.072Z,1.00
2023-03-27T12:12:17.218Z,1.00
2023-03-27T12:14:52.131Z,1.00
2023-03-27T12:17:21.909Z,1.00
2023-03-27T12:19:48.439Z,1.00
2023-03-27T12:22:24.636Z,1.00
2023-03-27T12:25:09.880Z,1.00
2023-03-27T12:27:40.019Z,1.00
2023-03-27T12:30:25.496Z,1.00
2023-03-27T12:33:16.511Z,1.00
2023-03-27T12:35:48.159Z,1.00
2023-03-27T12:38:36.272Z,1.00
2023-03-27T12:41:05.309Z,1.00
2023-03-27T12:43:33.845Z,1.00
2023-03-27T12:46:19.106Z,1.00
2023-03-27T12:48:51.190Z,1.00
2023-03-27T12:51:19.777Z,1.00
2023-03-27T12:53:47.734Z,1.00
2023-03-27T12:56:17.052Z,1.00
2023-03-27T12:58:44.694Z,1.00
2023-03-27T13:01:12.634Z,1.00
2023-03-27T13:03:54.448Z,1.00
2023-03-27T13:06:44.186Z,1.00
2023-03-27T13:09:28.293Z,1.00
2023-03-27T13:12:07.164Z,1.00
2023-03-27T13:14:36.985Z,1.00
2023-03-27T13:17:23.283Z,1.00
2023-03-27T13:19:56.356Z,1.00
2023-03-27T13:22:23.595Z,1.00
2023-03-27T13:25:07.818Z,1.00
2023-03-27T13:27:48.845Z,2.80
2023-03-27T13:30:35.584Z,7.90
2023-03-27T13:33:28.384Z,11.10
2023-03-27T13:35:58.134Z,14.80
2023-03-27T13:38:45.240Z,14.30
2023-03-27T13:41:30.385Z,17.40
2023-03-27T13:43:57.994Z,11.50
2023-03-27T13:46:29.117Z,11.70
2023-03-27T13:49:17.720Z,3.30
2023-03-27T13:51:47.770Z,1.40
2023-03-27T13:54:32.768Z,1.00
2023-03-27T13:57:31.960Z,1.00
2023-03-27T14:00:08.338Z,1.00
2023-03-27T14:02:44.197Z,1.00
2023-03-27T14:05:20.296Z,1.00
2023-03-27T14:07:53.408Z,1.00
2023-03-27T14:10:31.880Z,1.00
2023-03-27T14:13:12.397Z,1.00
2023-03-27T14:15:49.467Z,1.00
2023-03-27T14:18:25.656Z,1.00
2023-03-27T14:20:56.669Z,1.00
2023-03-27T14:23:26.475Z,1.00
2023-03-27T14:26:01.822Z,1.00
2023-03-27T14:28:31.628Z,1.00
2023-03-27T14:31:01.151Z,1.00
2023-03-27T14:33:28.655Z,1.00
2023-03-27T14:35:56.969Z,1.00
2023-03-27T14:38:25.283Z,1.00
2023-03-27T14:40:56.134Z,1.00
2023-03-27T14:43:22.850Z,1.00
2023-03-27T14:45:51.584Z,1.00
2023-03-27T14:48:26.112Z,16.70
2023-03-27T14:50:54.371Z,1.00
2023-03-27T14:53:26.168Z,1.00
2023-03-27T14:55:54.948Z,1.00
2023-03-27T14:58:23.289Z,1.00
2023-03-27T15:01:00.630Z,1.00
2023-03-27T15:03:30.220Z,1.00
2023-03-27T15:05:57.543Z,1.00
2023-03-27T15:08:31.188Z,1.00
2023-03-27T15:10:57.905Z,1.00
2023-03-27T15:13:25.880Z,1.00
2023-03-27T15:15:55.864Z,1.00
2023-03-27T15:18:30.851Z,1.00
2023-03-27T15:21:04.098Z,1.00
2023-03-27T15:23:34.010Z,1.00
2023-03-27T15:26:05.977Z,1.00
2023-03-27T15:28:38.694Z,1.00
2023-03-27T15:31:05.812Z,1.00
2023-03-27T15:33:46.520Z,1.00
2023-03-27T15:36:26.170Z,1.00
2023-03-27T15:38:54.033Z,1.00
2023-03-27T15:41:33.044Z,1.00
2023-03-27T15:44:03.783Z,1.00
2023-03-27T15:46:46.999Z,1.00
2023-03-27T15:49:28.531Z,1.00
2023-03-27T15:51:56.023Z,1.00
2023-03-27T15:54:33.557Z,1.00
2023-03-27T15:57:09.350Z,1.00
2023-03-27T15:59:52.797Z,1.00
2023-03-27T16:02:21.105Z,1.00
2023-03-27T16:04:53.507Z,1.00
2023-03-27T16:07:26.326Z,1.00
2023-03-27T16:09:57.253Z,1.00
2023-03-27T16:12:30.927Z,1.00
2023-03-27T16:14:57.726Z,1.00
2023-03-27T16:17:25.120Z,1.00
2023-03-27T16:19:54.717Z,1.00
2023-03-27T16:22:22.474Z,1.00
2023-03-27T16:24:49.046Z,1.00
2023-03-27T16:27:16.488Z,1.00
2023-03-27T16:29:43.323Z,1.00
2023-03-27T16:32:13.268Z,1.00
2023-03-27T16:34:40.135Z,1.00
2023-03-27T16:37:07.625Z,1.00
2023-03-27T16:39:34.370Z,1.00
2023-03-27T16:42:00.991Z,1.00
2023-03-27T16:44:27.581Z,1.00
2023-03-27T16:46:54.289Z,1.00
2023-03-27T16:49:20.862Z,1.00
2023-03-27T16:51:47.493Z,1.00
2023-03-27T16:54:14.460Z,1.00
2023-03-27T16:56:41.257Z,1.00
2023-03-27T16:59:07.833Z,1.00
2023-03-27T17:01:34.500Z,1.00
2023-03-27T17:04:01.278Z,1.00
2023-03-27T17:06:27.843Z,1.00
2023-03-27T17:08:55.736Z,1.00
2023-03-27T17:11:23.395Z,1.00
2023-03-27T17:13:50.638Z,1.00
2023-03-27T17:16:17.282Z,1.00
2023-03-27T17:18:44.170Z,1.00
2023-03-27T17:21:10.990Z,1.00
2023-03-27T17:23:37.730Z,1.00
2023-03-27T17:26:04.726Z,1.00
2023-03-27T17:28:31.567Z,1.00
2023-03-27T17:31:04.861Z,1.00
2023-03-27T17:33:32.381Z,1.00
2023-03-27T17:35:59.146Z,1.00
2023-03-27T17:38:25.887Z,1.00
2023-03-27T17:40:52.496Z,1.00
2023-03-27T17:43:19.188Z,1.00
2023-03-27T17:45:45.824Z,1.00
2023-03-27T17:48:13.362Z,1.00
2023-03-27T17:50:39.988Z,1.00
2023-03-27T17:53:06.931Z,1.00
2023-03-27T17:55:35.973Z,1.00
2023-03-27T17:58:08.723Z,1.00
2023-03-27T18:00:37.151Z,1.00
2023-03-27T18:03:03.839Z,1.00
2023-03-27T18:05:30.637Z,1.00
2023-03-27T18:07:57.176Z,1.00
2023-03-27T18:10:24.298Z,1.00
2023-03-27T18:12:50.960Z,1.00
2023-03-27T18:15:17.498Z,1.00
2023-03-27T18:17:44.110Z,1.00
2023-03-27T18:20:10.856Z,1.00
2023-03-27T18:22:38.301Z,1.00
2023-03-27T18:25:08.526Z,1.00
2023-03-27T18:27:39.992Z,1.00
2023-03-27T18:30:09.096Z,1.00
2023-03-27T18:32:36.022Z,1.00
2023-03-27T18:35:03.251Z,1.00
2023-03-27T18:37:29.813Z,1.00
2023-03-27T18:39:56.332Z,1.00
2023-03-27T18:42:22.883Z,1.00
2023-03-27T18:44:49.734Z,6.00
2023-03-27T18:47:16.268Z,8.40
2023-03-27T18:49:44.323Z,11.20
2023-03-27T18:52:11.970Z,10.50
2023-03-27T18:54:38.596Z,11.90
2023-03-27T18:57:05.209Z,10.50
2023-03-27T18:59:31.914Z,11.00
2023-03-27T19:01:58.569Z,11.20
2023-03-27T19:04:25.314Z,12.20
2023-03-27T19:06:51.810Z,12.30
2023-03-27T19:09:19.934Z,12.20
2023-03-27T19:11:48.145Z,13.00
2023-03-27T19:14:14.686Z,12.80
2023-03-27T19:16:41.282Z,12.60
2023-03-27T19:19:08.133Z,13.00
2023-03-27T19:21:34.817Z,13.40
2023-03-27T19:24:01.440Z,14.20
2023-03-27T19:26:28.029Z,16.80
2023-03-27T19:28:55.798Z,16.90
2023-03-27T19:31:22.461Z,16.80
2023-03-27T19:33:49.071Z,16.90
2023-03-27T19:36:15.881Z,17.80
2023-03-27T19:38:42.451Z,17.50
2023-03-27T19:41:09.610Z,19.10
2023-03-27T19:43:36.682Z,18.30
2023-03-27T19:46:15.724Z,19.60
2023-03-27T19:48:50.060Z,20.20
2023-03-27T19:51:16.907Z,20.10
2023-03-27T19:53:43.484Z,21.30
2023-03-27T19:56:10.044Z,21.40
2023-03-27T19:58:36.615Z,21.40
2023-03-27T20:01:04.605Z,20.40
2023-03-27T20:03:31.370Z,19.50
2023-03-27T20:06:07.752Z,18.00
2023-03-27T20:08:37.840Z,20.10
2023-03-27T20:11:04.713Z,19.60
2023-03-27T20:13:31.888Z,16.80
2023-03-27T20:16:02.557Z,16.80
2023-03-27T20:18:32.748Z,16.80
2023-03-27T20:21:04.522Z,18.20
2023-03-27T20:23:37.658Z,18.90
2023-03-27T20:26:04.403Z,17.80
2023-03-27T20:28:31.009Z,18.60
2023-03-27T20:31:02.072Z,18.40
2023-03-27T20:33:28.646Z,21.20
2023-03-27T20:35:55.544Z,23.70
2023-03-27T20:38:22.780Z,25.50
2023-03-27T20:40:53.959Z,25.90
2023-03-27T20:43:22.833Z,26.80
2023-03-27T20:45:53.103Z,27.90
2023-03-27T20:48:21.863Z,28.40
2023-03-27T20:50:51.208Z,29.20
2023-03-27T20:53:18.862Z,30.00
2023-03-27T20:55:57.085Z,30.00
2023-03-27T20:58:26.273Z,31.00
2023-03-27T21:00:53.515Z,32.70
2023-03-27T21:03:20.906Z,34.70
2023-03-27T21:05:47.501Z,34.80
2023-03-27T21:08:14.158Z,34.80
2023-03-27T21:10:41.146Z,34.80
2023-03-27T21:13:08.140Z,34.70
2023-03-27T21:15:35.231Z,35.10
2023-03-27T21:18:01.875Z,35.90
2023-03-27T21:20:28.597Z,34.70
2023-03-27T21:22:55.470Z,34.70
2023-03-27T21:25:22.315Z,34.70
2023-03-27T21:27:49.139Z,34.70
2023-03-27T21:30:16.584Z,34.70
2023-03-27T21:32:43.394Z,34.80
2023-03-27T21:35:09.923Z,34.70
2023-03-27T21:37:36.791Z,33.30
2023-03-27T21:40:04.661Z,31.70
2023-03-27T21:42:31.272Z,31.50
2023-03-27T21:44:57.874Z,31.40
2023-03-27T21:47:31.711Z,30.20
2023-03-27T21:50:04.144Z,29.40
2023-03-27T21:52:30.727Z,28.50
2023-03-27T21:55:02.910Z,29.50
2023-03-27T21:57:29.976Z,28.50
2023-03-27T21:59:56.511Z,28.00
2023-03-27T22:02:23.143Z,26.50
2023-03-27T22:04:49.800Z,26.80
2023-03-27T22:07:16.445Z,26.50
2023-03-27T22:09:43.945Z,27.00
2023-03-27T22:12:10.609Z,27.00
2023-03-27T22:14:37.190Z,29.40
2023-03-27T22:17:03.798Z,25.80
2023-03-27T22:19:30.462Z,29.00
2023-03-27T22:21:57.384Z,26.80
2023-03-27T22:24:25.420Z,27.60
2023-03-27T22:26:52.037Z,26.10
2023-03-27T22:29:18.691Z,26.60
2023-03-27T22:31:45.658Z,29.00
2023-03-27T22:34:12.357Z,29.10
2023-03-27T22:36:39.023Z,28.10
2023-03-27T22:39:05.710Z,28.40
2023-03-27T22:41:32.266Z,28.20
2023-03-27T22:44:00.350Z,28.40
2023-03-27T22:46:27.105Z,29.20
2023-03-27T22:48:57.215Z,29.20
2023-03-27T22:51:24.329Z,29.10
2023-03-27T22:53:51.588Z,30.00
2023-03-27T22:56:18.207Z,31.10
2023-03-27T22:58:45.060Z,33.00
2023-03-27T23:01:11.676Z,33.80
2023-03-27T23:03:38.829Z,34.20
2023-03-27T23:06:05.936Z,34.10
2023-03-27T23:08:32.485Z,34.20
2023-03-27T23:11:00.333Z,34.00
2023-03-27T23:13:28.163Z,36.00
2023-03-27T23:15:54.929Z,37.30
2023-03-27T23:18:23.705Z,39.10
2023-03-27T23:20:57.288Z,39.20
2023-03-27T23:23:24.155Z,39.40
2023-03-27T23:25:51.005Z,40.00
2023-03-27T23:28:17.596Z,40.40
2023-03-27T23:30:51.481Z,40.70
2023-03-27T23:33:18.033Z,41.20
2023-03-27T23:35:44.661Z,40.50
2023-03-27T23:38:11.325Z,41.10
2023-03-27T23:40:38.824Z,41.40
2023-03-27T23:43:05.431Z,41.90
2023-03-27T23:45:32.036Z,41.30
2023-03-27T23:47:58.605Z,42.90
2023-03-27T23:50:25.802Z,41.80
2023-03-27T23:52:52.375Z,40.80
2023-03-27T23:55:18.974Z,40.10
2023-03-27T23:57:45.771Z,40.90
